createdAt,value
2016-09-29T00:00:08.318Z,19.83
2016-09-29T00:01:08.260Z,19.83
2016-09-29T00:02:08.190Z,19.86
2016-09-29T00:03:08.275Z,19.78
2016-09-29T00:04:08.494Z,19.79
2016-09-29T00:05:08.800Z,19.78
2016-09-29T00:06:08.353Z,19.85
2016-09-29T00:07:08.281Z,19.87
2016-09-29T00:08:08.296Z,19.75
2016-09-29T00:09:08.366Z,19.87
2016-09-29T00:10:08.289Z,19.8
2016-09-29T00:11:08.348Z,19.8
2016-09-29T00:12:08.371Z,19.72
2016-09-29T00:13:08.255Z,19.75
2016-09-29T00:14:08.388Z,19.82
2016-09-29T00:15:08.454Z,19.79
2016-09-29T00:16:08.241Z,19.82
2016-09-29T00:17:08.371Z,19.8
2016-09-29T00:18:08.303Z,19.86
2016-09-29T00:19:08.368Z,19.8
2016-09-29T00:20:08.387Z,19.74
2016-09-29T00:21:08.353Z,19.89
2016-09-29T00:22:08.325Z,19.9
2016-09-29T00:23:08.407Z,19.92
2016-09-29T00:24:08.412Z,19.86
2016-09-29T00:25:08.495Z,19.93
2016-09-29T00:26:08.263Z,19.85
2016-09-29T00:27:08.415Z,19.85
2016-09-29T00:28:08.385Z,19.97
2016-09-29T00:29:08.400Z,19.85
2016-09-29T00:30:08.338Z,19.82
2016-09-29T00:31:08.633Z,19.8
2016-09-29T00:32:08.403Z,19.95
2016-09-29T00:33:08.398Z,19.87
2016-09-29T00:34:08.359Z,19.83
2016-09-29T00:35:08.412Z,19.78
2016-09-29T00:36:08.337Z,19.82
2016-09-29T00:37:08.371Z,19.78
2016-09-29T00:38:08.368Z,19.83
2016-09-29T00:39:08.470Z,19.78
2016-09-29T00:40:08.455Z,19.83
2016-09-29T00:41:08.379Z,19.75
2016-09-29T00:42:08.432Z,19.79
2016-09-29T00:43:08.457Z,19.8
2016-09-29T00:44:08.339Z,19.82
2016-09-29T00:45:08.405Z,19.75
2016-09-29T00:46:08.390Z,19.79
2016-09-29T00:47:08.533Z,19.83
2016-09-29T00:48:08.431Z,19.78
2016-09-29T00:49:08.486Z,19.74
2016-09-29T00:50:08.472Z,19.7
2016-09-29T00:51:08.450Z,19.74
2016-09-29T00:52:08.510Z,19.72
2016-09-29T00:53:08.366Z,19.75
2016-09-29T00:54:08.479Z,19.74
2016-09-29T00:55:08.422Z,19.68
2016-09-29T00:56:08.364Z,19.7
2016-09-29T00:57:08.393Z,19.74
2016-09-29T00:58:08.475Z,19.67
2016-09-29T00:59:08.468Z,19.56
2016-09-29T01:00:08.420Z,19.5
2016-09-29T01:01:08.448Z,19.57
2016-09-29T01:02:08.459Z,19.55
2016-09-29T01:03:08.786Z,19.53
2016-09-29T01:04:08.482Z,19.49
2016-09-29T01:05:08.407Z,19.53
2016-09-29T01:06:08.528Z,19.49
2016-09-29T01:07:08.486Z,19.49
2016-09-29T01:08:08.583Z,19.5
2016-09-29T01:09:08.464Z,19.43
2016-09-29T01:10:08.401Z,19.49
2016-09-29T01:11:08.535Z,19.43
2016-09-29T01:12:08.530Z,19.46
2016-09-29T01:13:08.443Z,19.49
2016-09-29T01:14:08.518Z,19.43
2016-09-29T01:15:08.563Z,19.46
2016-09-29T01:16:08.563Z,19.49
2016-09-29T01:17:08.403Z,19.5
2016-09-29T01:18:08.567Z,19.52
2016-09-29T01:19:08.839Z,19.5
2016-09-29T01:20:08.423Z,19.52
2016-09-29T01:21:08.578Z,19.42
2016-09-29T01:22:08.572Z,19.5
2016-09-29T01:23:08.477Z,19.45
2016-09-29T01:24:08.873Z,19.42
2016-09-29T01:25:08.575Z,19.38
2016-09-29T01:26:08.583Z,19.32
2016-09-29T01:27:08.463Z,19.31
2016-09-29T01:28:08.525Z,19.35
2016-09-29T01:29:08.601Z,19.31
2016-09-29T01:30:08.610Z,19.27
2016-09-29T01:31:08.598Z,19.23
2016-09-29T01:32:08.496Z,19.19
2016-09-29T01:33:08.509Z,19.3
2016-09-29T01:34:08.507Z,19.27
2016-09-29T01:35:08.850Z,19.31
2016-09-29T01:36:08.534Z,19.31
2016-09-29T01:37:08.537Z,19.27
2016-09-29T01:38:08.481Z,19.23
2016-09-29T01:39:08.514Z,19.16
2016-09-29T01:40:08.617Z,19.1
2016-09-29T01:41:08.576Z,19.07
2016-09-29T01:42:08.508Z,19.13
2016-09-29T01:43:08.652Z,19.1
2016-09-29T01:44:08.640Z,19.06
2016-09-29T01:45:08.576Z,18.99
2016-09-29T01:46:08.660Z,19.05
2016-09-29T01:47:08.573Z,19.02
2016-09-29T01:48:08.649Z,18.99
2016-09-29T01:49:08.574Z,19.1
2016-09-29T01:50:08.583Z,19
2016-09-29T01:51:08.791Z,18.97
2016-09-29T01:52:08.579Z,18.89
2016-09-29T01:53:08.546Z,18.89
2016-09-29T01:54:08.660Z,18.91
2016-09-29T01:55:08.556Z,19
2016-09-29T01:56:08.692Z,18.89
2016-09-29T01:57:08.626Z,18.9
2016-09-29T01:58:08.690Z,18.91
2016-09-29T01:59:08.676Z,18.93
2016-09-29T02:00:08.537Z,18.97
2016-09-29T02:01:08.651Z,18.86
2016-09-29T02:02:08.619Z,18.84
2016-09-29T02:03:08.758Z,18.9
2016-09-29T02:04:08.564Z,18.82
2016-09-29T02:05:08.707Z,18.76
2016-09-29T02:06:08.628Z,18.82
2016-09-29T02:07:08.761Z,18.87
2016-09-29T02:08:08.585Z,18.78
2016-09-29T02:09:08.632Z,18.72
2016-09-29T02:10:08.639Z,18.72
2016-09-29T02:11:08.631Z,18.72
2016-09-29T02:12:08.629Z,18.69
2016-09-29T02:13:08.631Z,18.75
2016-09-29T02:14:08.642Z,18.81
2016-09-29T02:15:08.697Z,18.84
2016-09-29T02:16:08.683Z,18.78
2016-09-29T02:17:08.653Z,18.81
2016-09-29T02:18:08.659Z,18.75
2016-09-29T02:19:08.745Z,18.75
2016-09-29T02:20:08.673Z,18.66
2016-09-29T02:21:08.674Z,18.71
2016-09-29T02:22:08.660Z,18.71
2016-09-29T02:23:08.914Z,18.71
2016-09-29T02:24:08.672Z,18.76
2016-09-29T02:25:08.720Z,18.76
2016-09-29T02:26:08.770Z,18.74
2016-09-29T02:27:08.698Z,18.65
2016-09-29T02:28:08.722Z,18.65
2016-09-29T02:29:08.683Z,18.56
2016-09-29T02:30:08.772Z,18.56
2016-09-29T02:31:08.766Z,18.59
2016-09-29T02:32:08.750Z,18.57
2016-09-29T02:33:08.710Z,18.61
2016-09-29T02:34:08.717Z,18.6
2016-09-29T02:35:08.707Z,18.6
2016-09-29T02:36:08.641Z,18.53
2016-09-29T02:37:08.804Z,18.53
2016-09-29T02:38:08.728Z,18.54
2016-09-29T02:39:08.874Z,18.51
2016-09-29T02:40:08.799Z,18.54
2016-09-29T02:41:08.750Z,18.51
2016-09-29T02:42:08.737Z,18.5
2016-09-29T02:43:08.729Z,18.6
2016-09-29T02:44:08.834Z,18.66
2016-09-29T02:45:08.710Z,18.66
2016-09-29T02:46:08.814Z,18.61
2016-09-29T02:47:08.751Z,18.59
2016-09-29T02:48:08.670Z,18.65
2016-09-29T02:49:08.720Z,18.59
2016-09-29T02:50:08.827Z,18.56
2016-09-29T02:51:08.796Z,18.54
2016-09-29T02:52:08.766Z,18.59
2016-09-29T02:53:08.704Z,18.49
2016-09-29T02:54:08.680Z,18.44
2016-09-29T02:55:08.870Z,18.56
2016-09-29T02:56:08.768Z,18.59
2016-09-29T02:57:08.805Z,18.49
2016-09-29T02:58:08.816Z,18.45
2016-09-29T02:59:08.855Z,18.53
2016-09-29T03:00:08.792Z,18.44
2016-09-29T03:01:08.833Z,18.49
2016-09-29T03:02:08.818Z,18.42
2016-09-29T03:03:08.790Z,18.53
2016-09-29T03:04:08.829Z,18.45
2016-09-29T03:05:08.787Z,18.42
2016-09-29T03:06:08.796Z,18.47
2016-09-29T03:07:08.830Z,18.56
2016-09-29T03:08:08.849Z,18.56
2016-09-29T03:09:08.814Z,18.57
2016-09-29T03:10:08.774Z,18.41
2016-09-29T03:11:09.031Z,18.45
2016-09-29T03:12:08.767Z,18.49
2016-09-29T03:13:08.810Z,18.47
2016-09-29T03:14:08.863Z,18.51
2016-09-29T03:15:08.815Z,18.41
2016-09-29T03:16:08.854Z,18.32
2016-09-29T03:17:08.781Z,18.45
2016-09-29T03:18:08.912Z,18.42
2016-09-29T03:19:08.908Z,18.54
2016-09-29T03:20:08.881Z,18.42
2016-09-29T03:21:08.868Z,18.41
2016-09-29T03:22:08.878Z,18.42
2016-09-29T03:23:08.893Z,18.42
2016-09-29T03:24:08.878Z,18.39
2016-09-29T03:25:08.952Z,18.5
2016-09-29T03:26:08.879Z,18.39
2016-09-29T03:27:09.020Z,18.41
2016-09-29T03:28:08.820Z,18.42
2016-09-29T03:29:08.901Z,18.29
2016-09-29T03:30:08.932Z,18.44
2016-09-29T03:31:08.841Z,18.44
2016-09-29T03:32:09.190Z,18.26
2016-09-29T03:33:08.888Z,18.32
2016-09-29T03:34:08.961Z,18.31
2016-09-29T03:35:08.961Z,18.27
2016-09-29T03:36:08.922Z,18.29
2016-09-29T03:37:08.889Z,18.34
2016-09-29T03:38:08.936Z,18.31
2016-09-29T03:39:08.903Z,18.35
2016-09-29T03:40:08.836Z,18.26
2016-09-29T03:41:08.894Z,18.31
2016-09-29T03:42:08.910Z,18.32
2016-09-29T03:43:09.107Z,18.27
2016-09-29T03:44:08.911Z,18.31
2016-09-29T03:45:08.937Z,18.26
2016-09-29T03:46:08.919Z,18.29
2016-09-29T03:47:08.954Z,18.31
2016-09-29T03:48:09.027Z,18.35
2016-09-29T03:49:09.017Z,18.32
2016-09-29T03:50:08.889Z,18.34
2016-09-29T03:51:08.915Z,18.32
2016-09-29T03:52:08.967Z,18.24
2016-09-29T03:53:09.009Z,18.23
2016-09-29T03:54:08.939Z,18.26
2016-09-29T03:55:09.008Z,18.23
2016-09-29T03:56:08.914Z,18.1
2016-09-29T03:57:08.914Z,18.16
2016-09-29T03:58:08.990Z,18.21
2016-09-29T03:59:09.254Z,18.27
2016-09-29T04:00:09.006Z,18.31
2016-09-29T04:01:09.002Z,18.27
2016-09-29T04:02:09.047Z,18.24
2016-09-29T04:03:09.016Z,18.2
2016-09-29T04:04:09.022Z,18.23
2016-09-29T04:05:09.009Z,18.19
2016-09-29T04:06:09.058Z,18.21
2016-09-29T04:07:08.980Z,18.26
2016-09-29T04:08:09.162Z,18.21
2016-09-29T04:09:08.977Z,18.31
2016-09-29T04:10:08.995Z,18.17
2016-09-29T04:11:09.009Z,18.21
2016-09-29T04:12:08.955Z,18.16
2016-09-29T04:13:09.076Z,18.26
2016-09-29T04:14:09.124Z,18.23
2016-09-29T04:15:09.180Z,18.23
2016-09-29T04:16:09.078Z,18.23
2016-09-29T04:17:08.927Z,18.13
2016-09-29T04:18:08.989Z,18.24
2016-09-29T04:19:09.009Z,18.1
2016-09-29T04:20:09.207Z,18.27
2016-09-29T04:21:09.100Z,18.23
2016-09-29T04:22:09.019Z,18.14
2016-09-29T04:23:09.063Z,18.2
2016-09-29T04:24:09.106Z,18.29
2016-09-29T04:25:09.068Z,18.21
2016-09-29T04:26:08.957Z,18.27
2016-09-29T04:27:09.043Z,18.16
2016-09-29T04:28:09.035Z,18.2
2016-09-29T04:29:09.037Z,18.26
2016-09-29T04:30:09.007Z,18.26
2016-09-29T04:31:09.135Z,18.21
2016-09-29T04:32:09.106Z,18.2
2016-09-29T04:33:09.134Z,18.17
2016-09-29T04:34:09.083Z,18.19
2016-09-29T04:35:09.074Z,18.29
2016-09-29T04:36:09.113Z,18.27
2016-09-29T04:37:09.064Z,18.26
2016-09-29T04:38:09.029Z,18.2
2016-09-29T04:39:09.096Z,18.11
2016-09-29T04:40:09.078Z,18.29
2016-09-29T04:41:09.083Z,18.19
2016-09-29T04:42:09.035Z,18.14
2016-09-29T04:43:09.076Z,18.16
2016-09-29T04:44:09.089Z,18.11
2016-09-29T04:45:09.091Z,18.19
2016-09-29T04:46:09.091Z,18.26
2016-09-29T04:47:09.205Z,18.24
2016-09-29T04:48:09.181Z,18.2
2016-09-29T04:49:09.168Z,18.2
2016-09-29T04:50:09.036Z,18.21
2016-09-29T04:51:09.098Z,18.26
2016-09-29T04:52:09.418Z,18.27
2016-09-29T04:53:09.100Z,18.2
2016-09-29T04:54:09.146Z,18.17
2016-09-29T04:55:09.127Z,18.19
2016-09-29T04:56:09.101Z,18.21
2016-09-29T04:57:09.106Z,18.24
2016-09-29T04:58:09.154Z,18.17
2016-09-29T04:59:09.164Z,18.29
2016-09-29T05:00:09.217Z,18.32
2016-09-29T05:01:09.079Z,18.17
2016-09-29T05:02:09.123Z,18.31
2016-09-29T05:03:09.436Z,18.16
2016-09-29T05:04:09.185Z,18.21
2016-09-29T05:05:09.158Z,18.23
2016-09-29T05:06:09.152Z,18.1
2016-09-29T05:07:09.061Z,18.11
2016-09-29T05:08:09.382Z,18.06
2016-09-29T05:09:09.233Z,18.2
2016-09-29T05:10:09.115Z,18.21
2016-09-29T05:11:09.200Z,18.14
2016-09-29T05:12:09.249Z,18.17
2016-09-29T05:13:09.153Z,18.16
2016-09-29T05:14:09.208Z,18.06
2016-09-29T05:15:09.205Z,18.11
2016-09-29T05:16:09.172Z,18.06
2016-09-29T05:17:09.168Z,18.08
2016-09-29T05:18:09.260Z,18.1
2016-09-29T05:19:09.352Z,18.01
2016-09-29T05:20:09.255Z,17.99
2016-09-29T05:21:09.235Z,17.98
2016-09-29T05:22:09.227Z,17.99
2016-09-29T05:23:09.233Z,17.94
2016-09-29T05:24:09.299Z,17.96
2016-09-29T05:25:09.207Z,17.98
2016-09-29T05:26:09.135Z,17.95
2016-09-29T05:27:09.275Z,17.92
2016-09-29T05:28:09.289Z,17.9
2016-09-29T05:29:09.167Z,17.96
2016-09-29T05:30:09.199Z,17.9
2016-09-29T05:31:09.215Z,17.88
2016-09-29T05:32:09.299Z,17.88
2016-09-29T05:33:09.233Z,17.8
2016-09-29T05:34:09.242Z,17.92
2016-09-29T05:35:09.800Z,17.86
2016-09-29T05:36:09.179Z,17.87
2016-09-29T05:37:09.253Z,17.87
2016-09-29T05:38:09.231Z,17.88
2016-09-29T05:39:09.295Z,17.86
2016-09-29T05:40:09.359Z,17.92
2016-09-29T05:41:09.294Z,17.83
2016-09-29T05:42:09.206Z,17.81
2016-09-29T05:43:09.172Z,17.8
2016-09-29T05:44:09.181Z,17.83
2016-09-29T05:45:09.339Z,17.81
2016-09-29T05:46:09.346Z,17.76
2016-09-29T05:47:09.329Z,17.9
2016-09-29T05:48:09.260Z,17.86
2016-09-29T05:49:09.331Z,17.87
2016-09-29T05:50:09.259Z,17.94
2016-09-29T05:51:09.406Z,17.86
2016-09-29T05:52:09.363Z,17.77
2016-09-29T05:53:09.246Z,17.77
2016-09-29T05:54:09.302Z,17.81
2016-09-29T05:55:09.324Z,17.8
2016-09-29T05:56:09.391Z,17.74
2016-09-29T05:57:09.338Z,17.74
2016-09-29T05:58:09.332Z,17.63
2016-09-29T05:59:09.331Z,17.79
2016-09-29T06:00:09.324Z,17.77
2016-09-29T06:01:09.376Z,17.81
2016-09-29T06:02:09.295Z,17.8
2016-09-29T06:03:09.335Z,17.77
2016-09-29T06:04:09.346Z,17.87
2016-09-29T06:05:09.318Z,17.77
2016-09-29T06:06:09.267Z,17.9
2016-09-29T06:07:09.431Z,17.81
2016-09-29T06:08:09.314Z,17.83
2016-09-29T06:09:09.402Z,17.77
2016-09-29T06:10:09.286Z,17.81
2016-09-29T06:11:09.373Z,17.88
2016-09-29T06:12:09.400Z,17.83
2016-09-29T06:13:09.295Z,17.76
2016-09-29T06:14:09.429Z,17.69
2016-09-29T06:15:09.405Z,17.95
2016-09-29T06:16:09.267Z,17.8
2016-09-29T06:17:09.370Z,17.77
2016-09-29T06:18:09.344Z,17.73
2016-09-29T06:19:09.368Z,17.87
2016-09-29T06:20:09.311Z,17.9
2016-09-29T06:21:09.440Z,17.84
2016-09-29T06:22:09.360Z,17.8
2016-09-29T06:23:09.487Z,17.71
2016-09-29T06:24:09.283Z,17.79
2016-09-29T06:25:09.395Z,17.79
2016-09-29T06:26:09.464Z,17.77
2016-09-29T06:27:09.448Z,17.74
2016-09-29T06:28:09.427Z,17.86
2016-09-29T06:29:09.458Z,17.83
2016-09-29T06:30:09.390Z,17.94
2016-09-29T06:31:09.440Z,17.94
2016-09-29T06:32:09.426Z,17.95
2016-09-29T06:33:09.383Z,17.98
2016-09-29T06:34:09.461Z,17.9
2016-09-29T06:35:09.367Z,17.98
2016-09-29T06:36:09.496Z,17.98
2016-09-29T06:37:09.467Z,18.01
2016-09-29T06:38:09.495Z,17.99
2016-09-29T06:39:09.737Z,18.08
2016-09-29T06:40:09.432Z,18.08
2016-09-29T06:41:09.455Z,18.1
2016-09-29T06:42:09.431Z,18.19
2016-09-29T06:43:09.453Z,18.24
2016-09-29T06:44:09.582Z,18.23
2016-09-29T06:45:09.409Z,18.16
2016-09-29T06:46:09.401Z,18.17
2016-09-29T06:47:09.504Z,18.16
2016-09-29T06:48:09.497Z,18.11
2016-09-29T06:49:09.473Z,18.24
2016-09-29T06:50:09.599Z,18.19
2016-09-29T06:51:09.551Z,18.14
2016-09-29T06:52:09.371Z,18.1
2016-09-29T06:53:09.473Z,18.05
2016-09-29T06:54:09.514Z,18.2
2016-09-29T06:55:09.803Z,18.06
2016-09-29T06:56:09.516Z,18.2
2016-09-29T06:57:09.465Z,18.17
2016-09-29T06:58:09.546Z,18.31
2016-09-29T06:59:09.508Z,18.45
2016-09-29T07:00:09.506Z,18.32
2016-09-29T07:01:09.408Z,18.34
2016-09-29T07:02:09.472Z,18.42
2016-09-29T07:03:09.575Z,18.41
2016-09-29T07:04:09.561Z,18.49
2016-09-29T07:05:09.465Z,18.57
2016-09-29T07:06:09.459Z,18.56
2016-09-29T07:07:09.432Z,18.65
2016-09-29T07:08:09.590Z,18.68
2016-09-29T07:09:09.445Z,18.76
2016-09-29T07:10:09.528Z,18.72
2016-09-29T07:11:09.713Z,18.72
2016-09-29T07:12:09.449Z,18.93
2016-09-29T07:13:09.602Z,18.87
2016-09-29T07:14:09.511Z,19
2016-09-29T07:15:09.672Z,19.05
2016-09-29T07:16:09.609Z,18.9
2016-09-29T07:17:09.593Z,18.96
2016-09-29T07:18:09.565Z,19.06
2016-09-29T07:19:36.321Z,19.09
2016-09-29T07:20:34.762Z,19.24
2016-09-29T07:21:15.915Z,19.17
2016-09-29T07:22:14.665Z,19.13
2016-09-29T07:23:09.585Z,19.25
2016-09-29T07:24:09.569Z,19.4
2016-09-29T07:25:09.551Z,19.49
2016-09-29T07:26:09.618Z,19.55
2016-09-29T07:27:09.632Z,19.42
2016-09-29T07:28:09.484Z,19.19
2016-09-29T07:29:09.634Z,19.13
2016-09-29T07:30:09.567Z,19.15
2016-09-29T07:31:09.549Z,19.25
2016-09-29T07:32:09.611Z,19.12
2016-09-29T07:33:09.602Z,19.06
2016-09-29T07:34:09.598Z,18.96
2016-09-29T07:35:09.618Z,18.82
2016-09-29T07:36:09.602Z,18.86
2016-09-29T07:37:09.629Z,18.9
2016-09-29T07:38:09.698Z,18.82
2016-09-29T07:39:10.008Z,19.05
2016-09-29T07:40:10.285Z,18.93
2016-09-29T07:41:09.772Z,18.99
2016-09-29T07:42:09.658Z,19.05
2016-09-29T07:43:09.634Z,18.97
2016-09-29T07:44:09.649Z,19.23
2016-09-29T07:45:09.646Z,19.09
2016-09-29T07:46:09.650Z,19.25
2016-09-29T07:47:09.532Z,19.32
2016-09-29T07:48:09.732Z,19.37
2016-09-29T07:49:09.659Z,19.53
2016-09-29T07:50:09.681Z,19.49
2016-09-29T07:51:09.721Z,19.65
2016-09-29T07:52:09.649Z,19.63
2016-09-29T07:53:09.935Z,19.5
2016-09-29T07:54:09.637Z,19.49
2016-09-29T07:55:09.733Z,19.6
2016-09-29T07:56:09.735Z,19.65
2016-09-29T07:57:09.708Z,19.49
2016-09-29T07:58:09.748Z,19.47
2016-09-29T07:59:09.682Z,19.61
2016-09-29T08:00:09.631Z,19.6
2016-09-29T08:01:09.725Z,19.79
2016-09-29T08:02:09.654Z,19.7
2016-09-29T08:03:09.618Z,19.5
2016-09-29T08:04:09.660Z,19.56
2016-09-29T08:05:09.739Z,19.53
2016-09-29T08:06:09.689Z,19.46
2016-09-29T08:07:09.660Z,19.42
2016-09-29T08:08:09.652Z,19.25
2016-09-29T08:09:09.720Z,19.15
2016-09-29T08:10:09.689Z,19.17
2016-09-29T08:11:09.791Z,19.09
2016-09-29T08:12:09.675Z,19.02
2016-09-29T08:13:09.727Z,19.12
2016-09-29T08:14:09.676Z,18.99
2016-09-29T08:15:09.711Z,18.97
2016-09-29T08:16:09.742Z,19.1
2016-09-29T08:17:09.757Z,19.28
2016-09-29T08:18:09.746Z,19.45
2016-09-29T08:19:09.715Z,19.37
2016-09-29T08:20:09.825Z,19.34
2016-09-29T08:21:09.706Z,19.4
2016-09-29T08:22:09.744Z,19.61
2016-09-29T08:23:09.661Z,19.87
2016-09-29T08:24:09.647Z,19.95
2016-09-29T08:25:10.101Z,19.93
2016-09-29T08:26:09.715Z,19.92
2016-09-29T08:27:09.742Z,19.89
2016-09-29T08:28:09.728Z,19.9
2016-09-29T08:29:09.758Z,20.05
2016-09-29T08:30:09.731Z,20.12
2016-09-29T08:31:09.811Z,19.97
2016-09-29T08:32:09.736Z,20.05
2016-09-29T08:33:09.838Z,20.23
2016-09-29T08:34:09.797Z,20.23
2016-09-29T08:35:09.837Z,20.3
2016-09-29T08:36:10.025Z,20.34
2016-09-29T08:37:09.778Z,20.41
2016-09-29T08:38:09.771Z,20.41
2016-09-29T08:39:09.742Z,20.4
2016-09-29T08:40:09.852Z,20.83
2016-09-29T08:41:09.970Z,20.91
2016-09-29T08:42:09.783Z,20.94
2016-09-29T08:43:09.773Z,20.75
2016-09-29T08:44:09.785Z,20.37
2016-09-29T08:45:09.879Z,20.64
2016-09-29T08:46:09.853Z,20.82
2016-09-29T08:47:09.793Z,20.85
2016-09-29T08:48:09.845Z,20.88
2016-09-29T08:49:09.834Z,21.25
2016-09-29T08:50:09.898Z,21.08
2016-09-29T08:51:09.808Z,20.67
2016-09-29T08:52:09.730Z,20.97
2016-09-29T08:53:09.746Z,21.19
2016-09-29T08:54:09.840Z,21.37
2016-09-29T08:55:09.815Z,21.12
2016-09-29T08:56:09.930Z,21.06
2016-09-29T08:57:09.878Z,21.49
2016-09-29T08:58:09.880Z,21.68
2016-09-29T08:59:09.899Z,21.38
2016-09-29T09:00:09.819Z,21.48
2016-09-29T09:01:09.909Z,21.33
2016-09-29T09:02:09.882Z,20.93
2016-09-29T09:03:09.863Z,20.67
2016-09-29T09:04:09.951Z,20.78
2016-09-29T09:05:09.931Z,21.09
2016-09-29T09:06:09.874Z,21.09
2016-09-29T09:07:09.816Z,21.37
2016-09-29T09:08:10.245Z,21.55
2016-09-29T09:09:09.865Z,21.58
2016-09-29T09:10:09.932Z,21.58
2016-09-29T09:11:09.817Z,21.86
2016-09-29T09:12:09.934Z,21.76
2016-09-29T09:13:10.137Z,21.8
2016-09-29T09:14:10.422Z,21.99
2016-09-29T09:15:10.862Z,21.59
2016-09-29T09:16:09.901Z,21.31
2016-09-29T09:17:09.911Z,21.52
2016-09-29T09:18:09.943Z,21.46
2016-09-29T09:19:09.942Z,21.64
2016-09-29T09:20:09.874Z,21.89
2016-09-29T09:21:09.914Z,22.07
2016-09-29T09:22:09.962Z,21.86
2016-09-29T09:23:09.929Z,22.09
2016-09-29T09:24:10.197Z,22
2016-09-29T09:25:09.978Z,21.55
2016-09-29T09:26:09.898Z,21.56
2016-09-29T09:27:09.864Z,21.64
2016-09-29T09:28:09.910Z,21.52
2016-09-29T09:29:10.091Z,21.93
2016-09-29T09:30:09.899Z,22.2
2016-09-29T09:31:09.941Z,21.96
2016-09-29T09:32:09.939Z,21.97
2016-09-29T09:33:10.000Z,22.04
2016-09-29T09:34:09.966Z,21.7
2016-09-29T09:35:10.009Z,21.61
2016-09-29T09:36:09.932Z,21.53
2016-09-29T09:37:10.077Z,21.49
2016-09-29T09:38:09.925Z,21.62
2016-09-29T09:39:09.850Z,21.45
2016-09-29T09:40:09.967Z,21.04
2016-09-29T09:41:09.976Z,20.98
2016-09-29T09:42:10.068Z,21.15
2016-09-29T09:43:10.092Z,21.08
2016-09-29T09:44:09.957Z,21.28
2016-09-29T09:45:10.079Z,21.27
2016-09-29T09:46:10.029Z,20.93
2016-09-29T09:47:09.954Z,21.08
2016-09-29T09:48:10.074Z,21.31
2016-09-29T09:49:09.940Z,21.36
2016-09-29T09:50:09.954Z,21.33
2016-09-29T09:51:10.050Z,21.12
2016-09-29T09:52:10.029Z,21.43
2016-09-29T09:53:09.931Z,21.66
2016-09-29T09:54:10.064Z,21.68
2016-09-29T09:55:10.060Z,21.73
2016-09-29T09:56:10.047Z,21.52
2016-09-29T09:57:10.069Z,21.36
2016-09-29T09:58:09.953Z,21.38
2016-09-29T09:59:10.057Z,21.56
2016-09-29T10:00:10.024Z,21.58
2016-09-29T10:01:10.429Z,21.61
2016-09-29T10:02:10.100Z,21.74
2016-09-29T10:03:10.125Z,21.7
2016-09-29T10:04:10.213Z,21.83
2016-09-29T10:05:10.172Z,21.73
2016-09-29T10:06:10.093Z,21.89
2016-09-29T10:07:10.102Z,21.7
2016-09-29T10:08:10.003Z,21.78
2016-09-29T10:09:10.140Z,21.9
2016-09-29T10:10:10.119Z,21.7
2016-09-29T10:11:10.023Z,21.86
2016-09-29T10:12:10.099Z,21.82
2016-09-29T10:13:10.043Z,21.83
2016-09-29T10:14:10.052Z,21.92
2016-09-29T10:15:10.203Z,22.15
2016-09-29T10:16:10.045Z,21.76
2016-09-29T10:17:10.051Z,21.52
2016-09-29T10:18:10.166Z,21.59
2016-09-29T10:19:10.048Z,21.55
2016-09-29T10:20:10.107Z,21.68
2016-09-29T10:21:10.017Z,21.89
2016-09-29T10:22:10.043Z,21.83
2016-09-29T10:23:10.145Z,22.23
2016-09-29T10:24:10.088Z,22.55
2016-09-29T10:25:10.136Z,22.64
2016-09-29T10:26:10.039Z,22.84
2016-09-29T10:27:10.107Z,22.84
2016-09-29T10:28:10.583Z,22.76
2016-09-29T10:29:10.269Z,22.69
2016-09-29T10:30:10.077Z,22.55
2016-09-29T10:31:10.012Z,22.38
2016-09-29T10:32:10.055Z,22.18
2016-09-29T10:33:10.340Z,21.86
2016-09-29T10:34:10.165Z,21.92
2016-09-29T10:35:10.052Z,21.92
2016-09-29T10:36:10.113Z,21.94
2016-09-29T10:37:10.118Z,22.16
2016-09-29T10:38:10.231Z,22.38
2016-09-29T10:39:10.196Z,22.33
2016-09-29T10:40:10.231Z,22.34
2016-09-29T10:41:10.160Z,21.96
2016-09-29T10:42:10.196Z,22.31
2016-09-29T10:43:10.214Z,22.33
2016-09-29T10:44:10.536Z,22.2
2016-09-29T10:45:10.077Z,21.99
2016-09-29T10:46:10.066Z,22.02
2016-09-29T10:47:10.071Z,22.29
2016-09-29T10:48:10.152Z,22.11
2016-09-29T10:49:10.607Z,22.41
2016-09-29T10:50:11.653Z,22.42
2016-09-29T10:51:12.054Z,22.48
2016-09-29T10:52:12.247Z,22.39
2016-09-29T10:53:11.150Z,22.73
2016-09-29T10:54:11.226Z,22.38
2016-09-29T10:55:10.261Z,22.34
2016-09-29T10:56:10.227Z,22.52
2016-09-29T10:57:10.727Z,22.66
2016-09-29T10:58:10.207Z,22.55
2016-09-29T10:59:10.167Z,22.6
2016-09-29T11:00:10.884Z,22.85
2016-09-29T11:01:10.199Z,22.61
2016-09-29T11:02:10.286Z,22.44
2016-09-29T11:03:10.193Z,22.46
2016-09-29T11:04:10.268Z,22.41
2016-09-29T11:05:10.159Z,22.24
2016-09-29T11:06:10.166Z,21.97
2016-09-29T11:07:10.285Z,22
2016-09-29T11:08:10.284Z,22.2
2016-09-29T11:09:10.258Z,21.86
2016-09-29T11:10:10.267Z,22.02
2016-09-29T11:11:10.289Z,22.45
2016-09-29T11:12:10.289Z,22.23
2016-09-29T11:13:10.235Z,22
2016-09-29T11:14:10.209Z,21.99
2016-09-29T11:15:10.229Z,21.68
2016-09-29T11:16:10.324Z,21.89
2016-09-29T11:17:10.171Z,21.66
2016-09-29T11:18:10.293Z,21.76
2016-09-29T11:19:10.341Z,21.67
2016-09-29T11:20:10.283Z,21.49
2016-09-29T11:21:10.323Z,21.58
2016-09-29T11:22:10.282Z,21.86
2016-09-29T11:23:10.363Z,21.96
2016-09-29T11:24:10.222Z,21.89
2016-09-29T11:25:10.285Z,21.85
2016-09-29T11:26:10.347Z,22.04
2016-09-29T11:27:11.287Z,21.85
2016-09-29T11:28:12.150Z,21.9
2016-09-29T11:29:10.344Z,21.71
2016-09-29T11:30:10.228Z,21.99
2016-09-29T11:31:10.372Z,22.22
2016-09-29T11:32:10.240Z,22.26
2016-09-29T11:33:10.375Z,21.89
2016-09-29T11:34:10.378Z,21.71
2016-09-29T11:35:10.316Z,21.93
2016-09-29T11:36:10.353Z,22.51
2016-09-29T11:37:10.739Z,22.26
2016-09-29T11:38:10.375Z,21.92
2016-09-29T11:39:10.294Z,21.71
2016-09-29T11:40:10.403Z,21.94
2016-09-29T11:41:10.299Z,21.82
2016-09-29T11:42:10.233Z,22.04
2016-09-29T11:43:10.354Z,22.07
2016-09-29T11:44:10.985Z,22.15
2016-09-29T11:45:10.229Z,22.23
2016-09-29T11:46:10.335Z,22.24
2016-09-29T11:47:10.345Z,22.12
2016-09-29T11:48:10.401Z,22.29
2016-09-29T11:49:10.317Z,22.04
2016-09-29T11:50:10.308Z,22.29
2016-09-29T11:51:10.408Z,22.16
2016-09-29T11:52:10.382Z,22.08
2016-09-29T11:53:10.713Z,22.55
2016-09-29T11:54:10.435Z,22.36
2016-09-29T11:55:10.303Z,22.24
2016-09-29T11:56:10.484Z,22.61
2016-09-29T11:57:10.265Z,22.6
2016-09-29T11:58:10.445Z,22.63
2016-09-29T11:59:10.319Z,22.39
2016-09-29T12:00:10.408Z,21.85
2016-09-29T12:01:10.975Z,21.68
2016-09-29T12:02:10.398Z,21.62
2016-09-29T12:03:10.273Z,21.55
2016-09-29T12:04:10.428Z,21.61
2016-09-29T12:05:10.401Z,21.62
2016-09-29T12:06:10.425Z,21.48
2016-09-29T12:07:10.336Z,21.4
2016-09-29T12:08:10.476Z,21.33
2016-09-29T12:09:10.461Z,21.25
2016-09-29T12:10:10.981Z,21.23
2016-09-29T12:11:10.379Z,21.23
2016-09-29T12:12:10.309Z,21.38
2016-09-29T12:13:10.447Z,21.51
2016-09-29T12:14:10.403Z,21.33
2016-09-29T12:15:10.510Z,21.34
2016-09-29T12:16:10.326Z,21.27
2016-09-29T12:17:10.422Z,21.25
2016-09-29T12:18:10.378Z,21.21
2016-09-29T12:19:10.399Z,21.37
2016-09-29T12:20:10.802Z,21.28
2016-09-29T12:21:10.529Z,21.13
2016-09-29T12:22:10.537Z,21.19
2016-09-29T12:23:10.418Z,21.15
2016-09-29T12:24:10.427Z,21.16
2016-09-29T12:25:10.790Z,21.18
2016-09-29T12:26:10.550Z,21.19
2016-09-29T12:27:10.437Z,21.19
2016-09-29T12:28:10.433Z,21.4
2016-09-29T12:29:10.476Z,21.13
2016-09-29T12:30:10.475Z,21.16
2016-09-29T12:31:10.558Z,21.23
2016-09-29T12:32:10.489Z,21.15
2016-09-29T12:33:10.479Z,21.22
2016-09-29T12:34:10.491Z,21.12
2016-09-29T12:35:10.455Z,21.08
2016-09-29T12:36:10.764Z,20.98
2016-09-29T12:37:10.519Z,20.91
2016-09-29T12:38:10.543Z,20.93
2016-09-29T12:39:10.428Z,20.93
2016-09-29T12:40:10.508Z,20.96
2016-09-29T12:41:10.597Z,21.12
2016-09-29T12:42:10.477Z,21
2016-09-29T12:43:10.490Z,20.91
2016-09-29T12:44:10.429Z,20.9
2016-09-29T12:45:10.537Z,20.91
2016-09-29T12:46:12.691Z,20.88
2016-09-29T12:47:10.536Z,20.81
2016-09-29T12:48:10.426Z,20.88
2016-09-29T12:49:10.540Z,20.93
2016-09-29T12:50:10.529Z,20.88
2016-09-29T12:51:10.530Z,20.82
2016-09-29T12:52:10.606Z,20.9
2016-09-29T12:53:10.564Z,20.94
2016-09-29T12:54:10.567Z,20.93
2016-09-29T12:55:10.460Z,20.93
2016-09-29T12:56:10.580Z,20.97